Time;durP1;ratioP1;P1;durP2;ratioP2;P2;SDS_P1;SDS_P2;PMS_P1;PMS_P2;Temp;Humidity;BMP_temperature;BMP_pressure;BME280_temperature;BME280_humidity;BME280_pressure;Samples;Min_cycle;Max_cycle;Signal;HPM_P1;HPM_P2
2022/12/28 00:01:23;;;;;;;14.15;5.40;;;;;;;5.48;100.00;99943.09;5058008;28;20032;-77
2022/12/28 00:03:50;;;;;;;8.73;4.28;;;;;;;5.53;100.00;99939.91;5073399;28;20043;-77
2022/12/28 00:06:17;;;;;;;13.77;3.25;;;;;;;5.48;100.00;99929.75;5058393;28;20060;-77
2022/12/28 00:08:43;;;;;;;14.70;3.30;;;;;;;5.49;100.00;99920.75;5054185;28;20123;-77
2022/12/28 00:11:14;;;;;;;18.42;3.67;;;;;;;5.49;100.00;99908.25;5073627;28;20095;-77
2022/12/28 00:13:39;;;;;;;14.45;3.67;;;;;;;5.55;100.00;99906.75;5043241;28;20098;-77
2022/12/28 00:16:09;;;;;;;19.40;3.45;;;;;;;5.58;100.00;99901.09;5054554;28;20033;-77
2022/12/28 00:18:36;;;;;;;7.45;2.40;;;;;;;5.55;100.00;99890.75;5042718;28;20040;-77
2022/12/28 00:21:03;;;;;;;11.45;3.50;;;;;;;5.63;100.00;99898.78;5054650;28;20475;-77
2022/12/28 00:23:29;;;;;;;12.43;2.60;;;;;;;5.69;100.00;99891.97;5021095;28;20043;-77
2022/12/28 00:25:55;;;;;;;10.90;2.42;;;;;;;5.65;100.00;99883.44;5054727;28;20043;-77
2022/12/28 00:28:21;;;;;;;8.95;3.33;;;;;;;5.70;100.00;99889.13;5021404;28;20041;-77
2022/12/28 00:30:46;;;;;;;11.98;2.60;;;;;;;5.62;100.00;99881.13;5037672;28;20086;-77
2022/12/28 00:33:12;;;;;;;9.77;3.13;;;;;;;5.62;100.00;99875.78;5056875;28;20028;-76
2022/12/28 00:35:38;;;;;;;10.13;3.22;;;;;;;5.61;100.00;99871.47;5074429;28;20029;-77
2022/12/28 00:38:06;;;;;;;11.18;3.50;;;;;;;5.66;100.00;99871.78;5056191;28;20039;-77
2022/12/28 00:40:32;;;;;;;14.80;2.90;;;;;;;5.63;100.00;99861.44;5058028;28;20399;-77
2022/12/28 00:42:57;;;;;;;10.88;3.35;;;;;;;5.66;100.00;99849.59;5057088;28;20059;-78
2022/12/28 00:45:23;;;;;;;9.70;3.13;;;;;;;5.57;100.00;99824.78;5057620;28;20024;-77
2022/12/28 00:47:48;;;;;;;12.82;3.83;;;;;;;5.67;100.00;99843.28;5039408;28;20029;-77
2022/12/28 00:50:14;;;;;;;9.48;3.95;;;;;;;5.63;100.00;99823.28;5041009;28;20048;-77
2022/12/28 00:52:40;;;;;;;11.98;3.22;;;;;;;5.56;100.00;99812.44;5056611;28;20039;-80
2022/12/28 00:55:06;;;;;;;12.55;3.13;;;;;;;5.49;100.00;99819.44;5072165;28;20029;-78
2022/12/28 00:57:32;;;;;;;11.20;2.90;;;;;;;5.48;100.00;99820.44;5075198;28;20082;-77
2022/12/28 00:59:58;;;;;;;13.35;2.45;;;;;;;5.54;100.00;99827.78;5072797;28;20063;-77
2022/12/28 01:02:23;;;;;;;11.02;2.60;;;;;;;5.45;100.00;99799.44;5040667;28;20055;-77
2022/12/28 01:04:49;;;;;;;10.45;2.03;;;;;;;5.62;100.00;99813.63;5071048;28;20039;-79
2022/12/28 01:07:15;;;;;;;7.22;2.25;;;;;;;5.52;100.00;99787.09;5055875;28;20060;-77
2022/12/28 01:09:40;;;;;;;13.00;2.30;;;;;;;5.67;100.00;99798.78;5055442;28;20052;-77
2022/12/28 01:12:06;;;;;;;7.03;2.25;;;;;;;5.77;100.00;99792.41;5040669;28;20033;-77
2022/12/28 01:14:32;;;;;;;19.60;2.90;;;;;;;5.76;100.00;99788.91;5055937;28;20036;-77
2022/12/28 01:16:57;;;;;;;6.80;2.33;;;;;;;5.82;100.00;99792.75;5074466;28;20401;-76
2022/12/28 01:19:24;;;;;;;12.27;2.80;;;;;;;5.85;100.00;99781.75;5039000;28;20035;-77
2022/12/28 01:21:50;;;;;;;6.63;1.60;;;;;;;5.81;100.00;99770.56;5072020;28;20050;-76
2022/12/28 01:24:16;;;;;;;13.88;3.05;;;;;;;5.65;100.00;99742.09;5072291;28;20020;-77
2022/12/28 01:26:42;;;;;;;9.80;2.45;;;;;;;5.78;100.00;99754.91;5073128;28;20064;-76
2022/12/28 01:29:08;;;;;;;11.77;2.58;;;;;;;5.79;100.00;99737.91;5055513;28;20056;-76
2022/12/28 01:31:33;;;;;;;5.72;1.77;;;;;;;5.89;100.00;99748.38;5073075;28;20028;-77
2022/12/28 01:34:00;;;;;;;18.70;3.30;;;;;;;5.88;100.00;99736.88;5071524;28;20428;-76
2022/12/28 01:36:34;;;;;;;9.60;2.20;;;;;;;5.93;100.00;99731.06;5056378;28;20032;-76
2022/12/28 01:39:03;;;;;;;15.23;2.97;;;;;;;5.97;100.00;99726.22;5071740;28;20048;-76
2022/12/28 01:41:30;;;;;;;10.90;2.65;;;;;;;5.86;100.00;99714.06;5055669;28;20063;-76
2022/12/28 01:43:56;;;;;;;10.02;3.25;;;;;;;5.91;100.00;99725.88;5022993;28;20041;-77
2022/12/28 01:46:24;;;;;;;8.18;2.97;;;;;;;5.88;100.00;99720.06;5072954;28;20110;-76
2022/12/28 01:49:01;;;;;;;10.52;2.80;;;;;;;5.77;100.00;99707.06;5044318;28;20140;-76
2022/12/28 01:51:29;;;;;;;7.72;2.72;;;;;;;5.76;100.00;99703.56;5062462;28;20031;-76
2022/12/28 01:53:55;;;;;;;11.43;2.83;;;;;;;5.69;100.00;99698.09;5039975;28;20056;-76
2022/12/28 01:56:21;;;;;;;11.27;3.28;;;;;;;5.70;100.00;99685.59;5057128;28;20433;-77
2022/12/28 01:58:47;;;;;;;7.45;2.67;;;;;;;5.78;100.00;99688.22;5036530;28;20486;-77
2022/12/28 02:01:13;;;;;;;13.32;3.90;;;;;;;5.73;100.00;99671.91;5054777;28;20033;-77
2022/12/28 02:03:38;;;;;;;14.57;4.00;;;;;;;5.76;100.00;99668.06;5055962;28;20028;-76
2022/12/28 02:06:08;;;;;;;16.05;4.05;;;;;;;5.66;100.00;99655.78;5036990;28;20489;-77
2022/12/28 02:08:41;;;;;;;15.70;4.85;;;;;;;5.67;100.00;99670.75;5056077;28;20086;-78
2022/12/28 02:11:10;;;;;;;17.08;4.75;;;;;;;5.66;100.00;99663.78;5038445;28;20081;-78
2022/12/28 02:13:37;;;;;;;21.05;4.93;;;;;;;5.65;100.00;99648.75;5037499;28;20094;-76
2022/12/28 02:16:04;;;;;;;15.65;4.15;;;;;;;5.60;100.00;99619.09;5037829;28;20101;-77
2022/12/28 02:18:30;;;;;;;17.80;4.32;;;;;;;5.65;100.00;99630.09;5056304;28;20032;-76
2022/12/28 02:21:02;;;;;;;16.73;5.65;;;;;;;5.55;100.00;99613.44;5054284;28;20063;-77
2022/12/28 02:23:39;;;;;;;18.25;5.10;;;;;;;5.46;100.00;99606.50;5072674;28;20029;-76
2022/12/28 02:26:39;;;;;;;19.13;4.70;;;;;;;5.29;100.00;99592.34;5054187;28;20064;-76
2022/12/28 02:29:25;;;;;;;16.05;3.80;;;;;;;5.16;100.00;99592.03;5055065;28;20032;-78
2022/12/28 02:32:19;;;;;;;11.25;4.13;;;;;;;5.10;100.00;99579.41;5053720;28;20032;-76
2022/12/28 02:34:57;;;;;;;21.13;5.97;;;;;;;5.03;100.00;99585.44;5018850;28;20044;-76
2022/12/28 02:37:57;;;;;;;16.30;3.70;;;;;;;4.96;100.00;99586.25;5035927;28;20037;-76
2022/12/28 02:40:28;;;;;;;16.70;4.93;;;;;;;5.01;100.00;99582.09;5045479;28;20048;-76
2022/12/28 02:42:54;;;;;;;10.57;3.67;;;;;;;4.86;100.00;99535.81;5037745;28;20055;-79
2022/12/28 02:51:34;;;;;;;12.25;3.03;;;;;;;4.71;100.00;99525.03;5057200;28;20083;-77
2022/12/28 02:57:49;;;;;;;7.10;2.67;;;;;;;4.65;100.00;99511.56;5052296;28;20041;-76
2022/12/28 03:00:17;;;;;;;11.38;3.30;;;;;;;4.62;100.00;99516.22;5033963;28;20037;-76
2022/12/28 03:03:01;;;;;;;7.35;2.78;;;;;;;4.62;100.00;99507.41;5018961;28;20449;-76
2022/12/28 03:09:09;;;;;;;8.60;2.15;;;;;;;4.64;100.00;99481.44;5037826;28;20041;-76
2022/12/28 03:11:50;;;;;;;10.15;2.67;;;;;;;4.50;100.00;99431.53;5052639;28;20055;-75
2022/12/28 03:14:40;;;;;;;11.00;2.90;;;;;;;4.88;100.00;99466.41;5037759;28;20075;-80
2022/12/28 03:31:06;;;;;;;9.38;3.50;;;;;;;5.24;100.00;99389.53;5048077;28;20040;-77
2022/12/28 03:33:35;;;;;;;12.73;3.88;;;;;;;5.37;100.00;99386.25;5058401;28;20115;-76
2022/12/28 03:36:03;;;;;;;13.60;6.15;;;;;;;5.39;100.00;99381.59;5059018;28;20470;-77
2022/12/28 03:38:36;;;;;;;11.43;4.93;;;;;;;5.34;100.00;99359.97;5074464;28;20028;-76
2022/12/28 03:41:07;;;;;;;11.45;4.60;;;;;;;5.20;100.00;99332.25;5042448;28;20043;-77
2022/12/28 03:43:47;;;;;;;13.07;3.80;;;;;;;5.27;100.00;99344.69;5024844;28;20505;-77
2022/12/28 03:46:20;;;;;;;8.35;2.38;;;;;;;5.13;100.00;99309.97;5058930;28;20074;-78
2022/12/28 03:48:46;;;;;;;15.93;3.00;;;;;;;5.06;100.00;99294.69;5074043;28;20485;-75
2022/12/28 03:51:13;;;;;;;7.97;2.42;;;;;;;5.03;100.00;99296.88;5025903;28;20082;-76
2022/12/28 03:53:41;;;;;;;8.48;2.50;;;;;;;5.01;100.00;99291.72;5037499;28;20387;-76
2022/12/28 03:56:10;;;;;;;11.98;2.33;;;;;;;5.03;100.00;99283.56;5006242;28;20421;-79
2022/12/28 03:58:35;;;;;;;20.38;2.95;;;;;;;5.03;100.00;99267.59;5046898;28;20142;-76
2022/12/28 04:01:01;;;;;;;15.35;2.85;;;;;;;4.98;100.00;99253.97;5038823;28;20486;-76
2022/12/28 04:03:27;;;;;;;9.95;2.58;;;;;;;5.02;100.00;99244.59;5033783;28;20443;-77
2022/12/28 04:05:54;;;;;;;12.95;2.75;;;;;;;5.06;100.00;99240.59;5042198;28;20146;-76
2022/12/28 04:08:19;;;;;;;12.98;1.98;;;;;;;5.07;100.00;99227.06;5040217;28;20388;-75
2022/12/28 04:10:45;;;;;;;10.90;2.67;;;;;;;5.05;100.00;99202.47;5058333;28;20488;-76
2022/12/28 04:13:11;;;;;;;2.50;1.20;;;;;;;5.15;100.00;99201.38;5040992;28;20032;-76
2022/12/28 04:15:37;;;;;;;0.50;0.50;;;;;;;5.21;100.00;99192.66;5040967;28;20551;-75
2022/12/28 04:18:03;;;;;;;0.68;0.68;;;;;;;5.17;100.00;99178.88;5071646;28;20109;-76
2022/12/28 04:20:28;;;;;;;0.70;0.70;;;;;;;5.23;100.00;99172.00;5056018;28;20131;-76
2022/12/28 04:22:54;;;;;;;0.32;0.32;;;;;;;5.26;100.00;99153.78;5040557;28;20086;-75
2022/12/28 04:25:20;;;;;;;0.40;0.40;;;;;;;5.27;100.00;99141.31;5041647;28;20047;-75
2022/12/28 04:27:45;;;;;;;0.40;0.40;;;;;;;5.34;100.00;99126.25;5045526;28;20055;-76
2022/12/28 04:30:11;;;;;;;0.40;0.40;;;;;;;5.36;100.00;99110.09;5038229;28;20487;-76
2022/12/28 04:32:37;;;;;;;0.30;0.30;;;;;;;5.39;100.00;99107.03;5039109;28;20051;-75
2022/12/28 04:35:03;;;;;;;0.70;0.70;;;;;;;5.42;100.00;99098.69;5040222;28;20050;-76
2022/12/28 04:37:29;;;;;;;0.50;0.50;;;;;;;5.41;100.00;99087.19;5044353;28;20090;-76
2022/12/28 04:39:54;;;;;;;0.40;0.40;;;;;;;5.42;100.00;99075.50;5021587;28;20044;-75
2022/12/28 04:42:20;;;;;;;0.47;0.47;;;;;;;5.42;100.00;99064.84;5037322;28;20047;-76
2022/12/28 04:44:46;;;;;;;0.50;0.50;;;;;;;5.48;100.00;99064.13;5021399;28;20120;-76
2022/12/28 04:47:12;;;;;;;0.40;0.40;;;;;;;5.48;100.00;99045.47;5025626;28;20032;-76
2022/12/28 04:49:38;;;;;;;0.40;0.40;;;;;;;5.55;100.00;99032.22;5037724;28;20037;-75
2022/12/28 04:52:03;;;;;;;0.40;0.40;;;;;;;5.60;100.00;99021.81;5060513;28;20076;-76
2022/12/28 04:54:29;;;;;;;0.47;0.47;;;;;;;5.63;100.00;99009.97;5041064;28;20534;-76
2022/12/28 04:56:55;;;;;;;0.40;0.40;;;;;;;5.67;100.00;98996.06;5039754;28;20051;-76
2022/12/28 04:59:21;;;;;;;0.52;0.52;;;;;;;5.69;100.00;98980.72;5041038;28;20493;-75
2022/12/28 05:01:46;;;;;;;0.40;0.40;;;;;;;5.73;100.00;98971.31;5036969;28;20076;-75
2022/12/28 05:04:12;;;;;;;0.50;0.50;;;;;;;5.76;100.00;98963.94;5021224;28;20087;-77
2022/12/28 05:06:38;;;;;;;0.50;0.50;;;;;;;5.76;100.00;98951.44;5039334;28;21502;-76
2022/12/28 05:09:03;;;;;;;0.55;0.52;;;;;;;5.70;100.00;98934.34;5040834;28;20024;-76
2022/12/28 05:11:30;;;;;;;0.40;0.40;;;;;;;5.76;100.00;98929.28;5055697;28;20037;-77
2022/12/28 05:13:56;;;;;;;0.50;0.50;;;;;;;5.74;100.00;98926.78;5037178;28;20044;-79
2022/12/28 05:16:24;;;;;;;0.60;0.60;;;;;;;5.70;100.00;98905.03;5036298;28;20025;-78
2022/12/28 05:18:50;;;;;;;0.40;0.40;;;;;;;5.71;100.00;98892.50;5055922;28;20428;-76
2022/12/28 05:21:21;;;;;;;0.40;0.40;;;;;;;5.72;100.00;98886.19;5040493;28;20047;-76
2022/12/28 05:23:47;;;;;;;0.47;0.47;;;;;;;5.76;100.00;98873.28;5036901;28;20032;-76
2022/12/28 05:26:17;;;;;;;0.40;0.40;;;;;;;5.76;100.00;98871.44;5037699;28;20025;-76
2022/12/28 05:28:43;;;;;;;0.40;0.40;;;;;;;5.81;100.00;98855.69;5037050;28;20036;-76
2022/12/28 05:31:13;;;;;;;0.50;0.50;;;;;;;5.83;100.00;98845.66;5039162;28;20032;-75
2022/12/28 05:33:39;;;;;;;0.40;0.40;;;;;;;5.85;100.00;98824.97;5056947;28;20075;-75
2022/12/28 05:36:07;;;;;;;0.45;0.45;;;;;;;5.87;100.00;98800.75;5039119;28;20039;-76
2022/12/28 05:38:33;;;;;;;0.45;0.45;;;;;;;5.93;100.00;98806.19;5074596;28;20064;-76
2022/12/28 05:41:15;;;;;;;0.30;0.30;;;;;;;5.95;100.00;98784.63;5037754;28;20063;-76
2022/12/28 05:43:41;;;;;;;0.50;0.50;;;;;;;5.92;100.00;98755.66;5056639;28;20041;-75
2022/12/28 05:46:11;;;;;;;0.50;0.50;;;;;;;6.01;100.00;98749.19;5071798;28;20033;-76
2022/12/28 05:48:38;;;;;;;0.40;0.40;;;;;;;6.04;100.00;98738.13;5054702;28;20063;-76
2022/12/28 05:51:08;;;;;;;0.40;0.40;;;;;;;6.07;100.00;98731.56;5055367;28;20044;-76
2022/12/28 05:53:34;;;;;;;0.40;0.40;;;;;;;6.08;100.00;98722.53;5072223;28;20028;-77
2022/12/28 05:56:06;;;;;;;0.47;0.47;;;;;;;6.08;100.00;98701.19;5038629;28;20032;-76
2022/12/28 05:58:32;;;;;;;0.40;0.40;;;;;;;6.11;100.00;98701.63;5072639;28;20039;-76
2022/12/28 06:01:10;;;;;;;0.40;0.40;;;;;;;6.11;100.00;98690.97;5055076;28;20131;-76
2022/12/28 06:03:37;;;;;;;0.40;0.40;;;;;;;6.10;100.00;98659.13;5056179;28;20054;-76
2022/12/28 06:06:12;;;;;;;0.40;0.40;;;;;;;6.15;100.00;98662.03;5071562;28;20035;-77
2022/12/28 06:08:41;;;;;;;0.40;0.40;;;;;;;6.11;100.00;98629.59;5056197;28;20038;-76
2022/12/28 06:11:09;;;;;;;0.40;0.40;;;;;;;6.23;100.00;98635.16;5054703;28;20085;-76
2022/12/28 06:13:35;;;;;;;0.50;0.50;;;;;;;6.12;100.00;98591.22;5055965;28;20047;-76
2022/12/28 06:16:09;;;;;;;0.50;0.50;;;;;;;6.39;100.00;98615.31;5038582;28;20039;-76
2022/12/28 06:18:35;;;;;;;0.30;0.30;;;;;;;6.46;100.00;98577.97;5039548;28;20044;-76
2022/12/28 06:21:15;;;;;;;0.50;0.50;;;;;;;6.51;100.00;98584.34;5038487;28;20061;-76
2022/12/28 06:23:42;;;;;;;0.40;0.40;;;;;;;6.58;100.00;98590.47;5055779;28;20039;-75
2022/12/28 06:26:08;;;;;;;0.30;0.30;;;;;;;6.57;100.00;98572.84;5054675;28;21056;-76
2022/12/28 06:28:37;;;;;;;0.50;0.50;;;;;;;6.62;100.00;98547.38;5015910;28;20033;-76
2022/12/28 06:31:08;;;;;;;0.30;0.30;;;;;;;6.64;100.00;98554.13;5036935;28;20042;-76
2022/12/28 06:33:34;;;;;;;0.40;0.40;;;;;;;6.70;100.00;98528.47;5055949;28;20042;-76
2022/12/28 06:36:00;;;;;;;0.40;0.40;;;;;;;6.70;100.00;98531.16;5038036;28;20032;-75
2022/12/28 06:38:28;;;;;;;0.40;0.40;;;;;;;6.74;100.00;98519.00;5055758;28;20044;-76
2022/12/28 06:40:54;;;;;;;0.50;0.50;;;;;;;6.83;100.00;98513.25;5038519;28;20390;-81
2022/12/28 06:43:19;;;;;;;0.40;0.40;;;;;;;6.93;100.00;98510.19;5071853;28;20099;-77
2022/12/28 06:45:55;;;;;;;0.40;0.40;;;;;;;7.00;100.00;98496.81;5039237;28;20036;-76
2022/12/28 06:48:21;;;;;;;0.50;0.50;;;;;;;6.98;100.00;98470.28;5055363;28;20045;-76
2022/12/28 06:51:02;;;;;;;0.50;0.50;;;;;;;7.13;100.00;98456.69;5055334;28;20138;-76
2022/12/28 06:53:31;;;;;;;0.35;0.35;;;;;;;7.32;100.00;98462.19;5051947;28;20090;-77
2022/12/28 06:56:17;;;;;;;0.50;0.50;;;;;;;7.39;100.00;98445.09;5034720;28;20116;-77
2022/12/28 06:58:43;;;;;;;0.40;0.40;;;;;;;7.49;100.00;98436.63;5050766;28;20028;-77
2022/12/28 07:01:16;;;;;;;0.32;0.32;;;;;;;7.61;100.00;98436.75;5059739;28;20044;-76
2022/12/28 07:03:42;;;;;;;0.50;0.50;;;;;;;7.65;100.00;98427.28;5075158;28;20020;-76
2022/12/28 07:06:09;;;;;;;0.50;0.50;;;;;;;7.75;100.00;98416.91;5042986;28;20028;-77
2022/12/28 07:08:35;;;;;;;0.40;0.40;;;;;;;7.80;100.00;98401.03;5041527;28;20371;-77
2022/12/28 07:11:10;;;;;;;0.40;0.40;;;;;;;7.85;100.00;98392.38;5075893;28;20093;-75
2022/12/28 07:13:36;;;;;;;0.40;0.40;;;;;;;7.96;100.00;98385.50;5025806;28;20398;-78
2022/12/28 07:16:16;;;;;;;0.40;0.40;;;;;;;7.96;100.00;98372.13;5042961;28;20032;-77
2022/12/28 07:18:42;;;;;;;0.40;0.40;;;;;;;8.09;100.00;98372.03;5052226;28;20041;-78
2022/12/28 07:21:13;;;;;;;0.40;0.40;;;;;;;8.11;100.00;98360.06;5056012;28;20470;-77
2022/12/28 07:23:39;;;;;;;0.40;0.40;;;;;;;8.12;100.00;98347.50;5072431;28;20033;-78
2022/12/28 07:26:19;;;;;;;0.40;0.40;;;;;;;8.12;100.00;98342.16;5058888;28;20553;-77
2022/12/28 07:28:47;;;;;;;0.40;0.40;;;;;;;8.09;100.00;98327.34;5040482;28;20114;-79
2022/12/28 07:31:15;;;;;;;0.40;0.40;;;;;;;8.19;100.00;98332.22;5056574;28;20033;-77
2022/12/28 07:33:42;;;;;;;0.35;0.35;;;;;;;8.20;100.00;98312.41;5036069;28;20099;-77
2022/12/28 07:36:10;;;;;;;0.40;0.40;;;;;;;8.24;100.00;98302.13;5023336;28;20503;-78
2022/12/28 07:38:36;;;;;;;0.40;0.40;;;;;;;8.28;100.00;98306.81;5075638;28;20077;-78
2022/12/28 07:41:11;;;;;;;0.40;0.40;;;;;;;8.28;100.00;98285.38;5056522;28;20526;-78
2022/12/28 07:43:37;;;;;;;0.40;0.40;;;;;;;8.34;100.00;98289.84;5075051;28;20028;-75
2022/12/28 07:46:12;;;;;;;0.40;0.40;;;;;;;8.35;100.00;98274.59;5058953;28;20360;-78
2022/12/28 07:48:38;;;;;;;0.40;0.40;;;;;;;8.37;100.00;98272.53;5073113;28;20089;-78
2022/12/28 07:51:10;;;;;;;0.40;0.40;;;;;;;8.46;100.00;98267.72;5058999;28;20089;-79
2022/12/28 07:53:36;;;;;;;0.30;0.30;;;;;;;8.33;100.00;98234.66;5055493;28;20033;-77
2022/12/28 07:56:02;;;;;;;0.40;0.40;;;;;;;8.49;100.00;98249.31;5073807;28;20040;-77
2022/12/28 07:58:28;;;;;;;0.43;0.43;;;;;;;8.57;100.00;98238.34;5042218;28;20032;-77
2022/12/28 08:00:54;;;;;;;0.40;0.40;;;;;;;8.65;100.00;98247.91;5041232;28;20131;-77
2022/12/28 08:03:19;;;;;;;0.40;0.40;;;;;;;8.72;100.00;98242.47;5051245;28;20126;-76
2022/12/28 08:05:45;;;;;;;0.40;0.40;;;;;;;8.78;100.00;98233.53;5065848;28;20036;-77
2022/12/28 08:08:11;;;;;;;0.30;0.30;;;;;;;8.83;100.00;98219.47;5053228;28;20041;-76
2022/12/28 08:10:36;;;;;;;0.40;0.40;;;;;;;8.89;100.00;98210.50;5041266;28;20419;-77
2022/12/28 08:13:02;;;;;;;0.40;0.40;;;;;;;8.96;100.00;98211.25;5057237;28;20024;-77
2022/12/28 08:15:28;;;;;;;0.40;0.40;;;;;;;8.99;100.00;98203.56;5075054;28;20067;-76
2022/12/28 08:17:54;;;;;;;0.40;0.40;;;;;;;9.05;100.00;98192.97;5051858;28;20048;-76
2022/12/28 08:20:21;;;;;;;0.40;0.40;;;;;;;9.10;100.00;98188.56;5033278;28;20123;-77
2022/12/28 08:22:47;;;;;;;0.30;0.30;;;;;;;9.12;100.00;98173.06;5072230;28;20111;-78
2022/12/28 08:25:13;;;;;;;0.40;0.40;;;;;;;9.26;100.00;98184.38;5069281;28;20605;-78
2022/12/28 08:27:38;;;;;;;0.40;0.40;;;;;;;9.37;100.00;98183.63;5037623;28;20425;-75
2022/12/28 08:30:05;;;;;;;0.43;0.43;;;;;;;9.43;100.00;98176.50;5048814;28;20171;-75
2022/12/28 08:32:31;;;;;;;0.40;0.40;;;;;;;9.54;100.00;98175.69;5041508;28;20036;-76
2022/12/28 08:34:56;;;;;;;0.40;0.40;;;;;;;9.65;100.00;98166.81;5073051;28;20382;-75
2022/12/28 08:37:22;;;;;;;0.35;0.35;;;;;;;9.73;100.00;98148.75;5055007;28;20029;-76
2022/12/28 08:39:48;;;;;;;0.30;0.30;;;;;;;9.77;100.00;98152.59;5033052;28;20036;-75
2022/12/28 08:42:13;;;;;;;0.40;0.40;;;;;;;9.81;100.00;98130.41;5056326;28;20036;-75
2022/12/28 08:44:39;;;;;;;0.40;0.40;;;;;;;9.83;100.00;98148.97;5034876;28;20033;-75
2022/12/28 08:47:04;;;;;;;0.40;0.40;;;;;;;9.85;100.00;98141.50;5050095;28;20443;-75
2022/12/28 08:49:30;;;;;;;0.40;0.40;;;;;;;9.89;100.00;98134.59;5054189;28;20392;-75
2022/12/28 08:51:56;;;;;;;0.43;0.43;;;;;;;9.89;100.00;98129.25;5072763;28;20020;-76
2022/12/28 08:54:22;;;;;;;0.40;0.40;;;;;;;9.92;100.00;98128.75;5070410;28;20064;-78
2022/12/28 08:56:48;;;;;;;0.40;0.40;;;;;;;9.91;100.00;98124.47;5035074;28;20084;-80
2022/12/28 08:59:17;;;;;;;0.40;0.40;;;;;;;9.94;100.00;98115.13;5048931;28;20117;-77
2022/12/28 09:01:43;;;;;;;0.40;0.40;;;;;;;9.97;100.00;98125.38;5072175;28;20500;-77
2022/12/28 09:04:13;;;;;;;0.40;0.40;;;;;;;9.98;100.00;98125.16;5069367;28;20029;-78
2022/12/28 09:06:39;;;;;;;0.40;0.40;;;;;;;10.01;100.00;98118.50;5068341;28;20036;-75
2022/12/28 09:09:07;;;;;;;0.40;0.40;;;;;;;10.04;100.00;98112.66;5053451;28;20047;-75
2022/12/28 09:11:34;;;;;;;0.45;0.45;;;;;;;10.02;100.00;98126.28;5039335;28;20115;-78
2022/12/28 09:14:01;;;;;;;0.40;0.40;;;;;;;10.06;100.00;98122.09;5056187;28;20032;-75
2022/12/28 09:16:27;;;;;;;0.40;0.40;;;;;;;10.05;100.00;98101.66;5055245;28;20045;-75
2022/12/28 09:18:54;;;;;;;0.40;0.40;;;;;;;10.05;100.00;98107.03;5055628;28;20040;-75
2022/12/28 09:21:22;;;;;;;0.40;0.40;;;;;;;10.11;100.00;98114.16;5040104;28;20368;-76
2022/12/28 09:23:48;;;;;;;0.65;0.40;;;;;;;10.13;100.00;98111.22;5071356;28;20037;-75
2022/12/28 09:26:18;;;;;;;0.47;0.47;;;;;;;10.19;100.00;98125.56;5072069;28;20107;-76
2022/12/28 09:28:48;;;;;;;0.30;0.30;;;;;;;10.19;100.00;98118.34;5056254;28;20059;-79
2022/12/28 09:31:15;;;;;;;0.50;0.50;;;;;;;10.20;100.00;98128.00;5067181;28;20036;-75
2022/12/28 09:36:35;;;;;;;0.40;0.40;;;;;;;10.22;100.00;98135.84;5069335;28;20029;-78
2022/12/28 09:39:13;;;;;;;0.40;0.40;;;;;;;10.18;100.00;98138.16;5047143;28;20051;-77
2022/12/28 09:41:58;;;;;;;0.40;0.40;;;;;;;10.18;100.00;98154.28;5068653;28;20039;-78
2022/12/28 09:44:37;;;;;;;0.40;0.40;;;;;;;10.05;100.00;98163.41;5029149;28;20919;-74
2022/12/28 09:47:16;;;;;;;0.43;0.43;;;;;;;10.07;100.00;98157.81;5051849;28;20127;-77
2022/12/28 09:50:08;;;;;;;0.73;0.57;;;;;;;10.06;100.00;98167.75;5023520;28;20047;-77
2022/12/28 09:52:52;;;;;;;0.40;0.40;;;;;;;10.06;100.00;98162.38;5027791;28;20557;-79
2022/12/28 09:55:18;;;;;;;0.50;0.50;;;;;;;9.93;100.00;98135.78;5055901;28;20040;-78
2022/12/28 09:57:47;;;;;;;0.32;0.32;;;;;;;9.95;100.00;98159.69;5037743;28;20101;-78
2022/12/28 10:00:47;;;;;;;0.50;0.50;;;;;;;9.91;100.00;98157.47;5072663;28;20102;-77
2022/12/28 10:03:40;;;;;;;2.15;0.88;;;;;;;9.86;100.00;98148.50;5068109;28;20036;-77
2022/12/28 10:06:17;;;;;;;0.57;0.57;;;;;;;9.92;100.00;98142.19;5040252;28;20047;-77
2022/12/28 10:08:48;;;;;;;0.50;0.50;;;;;;;10.01;100.00;98134.59;5033547;28;20032;-78
2022/12/28 10:11:20;;;;;;;0.47;0.40;;;;;;;10.04;100.00;98143.00;5070371;28;20107;-76
2022/12/28 10:13:50;;;;;;;0.80;0.50;;;;;;;10.13;100.00;98148.81;5071090;28;20409;-75
2022/12/28 10:16:18;;;;;;;0.40;0.40;;;;;;;10.17;100.00;98127.69;5060521;28;20052;-78
2022/12/28 10:18:44;;;;;;;0.68;0.50;;;;;;;10.12;100.00;98142.63;5045912;28;20035;-75
2022/12/28 10:21:10;;;;;;;0.65;0.63;;;;;;;10.07;100.00;98145.19;5068391;28;20037;-78
2022/12/28 10:23:37;;;;;;;1.58;0.70;;;;;;;9.99;100.00;98129.47;5035657;28;20090;-77
2022/12/28 10:26:04;;;;;;;0.40;0.40;;;;;;;9.90;100.00;98136.25;5039288;28;20024;-78
2022/12/28 10:29:00;;;;;;;1.00;0.60;;;;;;;9.78;100.00;98138.94;5072043;28;20033;-77
2022/12/28 10:31:37;;;;;;;0.50;0.50;;;;;;;9.70;100.00;98125.88;5038405;28;20036;-79
2022/12/28 10:34:19;;;;;;;0.65;0.60;;;;;;;9.62;100.00;98134.28;5072121;28;20036;-78
2022/12/28 10:36:53;;;;;;;1.23;0.50;;;;;;;9.55;100.00;98121.00;5072514;28;20486;-80
2022/12/28 10:39:27;;;;;;;1.33;0.50;;;;;;;9.67;100.00;98121.81;5072096;28;20029;-80
2022/12/28 10:41:54;;;;;;;0.60;0.60;;;;;;;9.81;100.00;98116.19;5072152;28;20032;-77
2022/12/28 10:44:28;;;;;;;0.55;0.55;;;;;;;9.84;100.00;98118.41;5022602;28;20055;-76
2022/12/28 10:47:17;;;;;;;2.08;0.70;;;;;;;10.03;100.00;98111.84;5072584;28;20124;-77
2022/12/28 10:49:51;;;;;;;0.80;0.60;;;;;;;10.66;100.00;98110.09;5063854;28;20431;-77
2022/12/28 10:52:19;;;;;;;0.85;0.75;;;;;;;11.24;100.00;98118.88;5072302;28;20029;-76
2022/12/28 10:54:45;;;;;;;1.27;0.95;;;;;;;11.47;100.00;98106.34;5051402;28;20029;-73
2022/12/28 10:57:23;;;;;;;3.13;0.90;;;;;;;11.63;100.00;98100.91;5036579;28;20039;-73
2022/12/28 10:59:49;;;;;;;1.27;0.73;;;;;;;11.74;100.00;98099.19;5068460;28;20037;-75
2022/12/28 11:02:29;;;;;;;2.13;1.10;;;;;;;12.09;100.00;98108.81;5050622;28;20031;-77
2022/12/28 11:05:00;;;;;;;1.10;0.88;;;;;;;12.19;100.00;98116.22;5050296;28;20041;-76
2022/12/28 11:07:33;;;;;;;4.28;1.38;;;;;;;11.75;100.00;98125.06;5081790;28;20028;-74
2022/12/28 11:10:29;;;;;;;7.32;1.65;;;;;;;10.85;100.00;98134.94;5068391;28;20116;-75
2022/12/28 11:12:57;;;;;;;2.22;1.05;;;;;;;10.65;100.00;98108.50;5051040;28;20036;-75
2022/12/28 11:15:31;;;;;;;1.73;0.95;;;;;;;10.18;100.00;98132.81;5034533;28;20183;-77
2022/12/28 11:17:59;;;;;;;3.45;1.13;;;;;;;9.77;100.00;98131.16;5054732;28;20028;-76
2022/12/28 11:20:32;;;;;;;2.00;1.02;;;;;;;9.54;100.00;98126.59;5055219;28;20110;-76
2022/12/28 11:22:58;;;;;;;5.70;1.00;;;;;;;9.48;100.00;98131.03;5055087;28;20024;-74
2022/12/28 11:25:33;;;;;;;2.67;1.10;;;;;;;9.53;100.00;98128.47;5036609;28;20039;-74
2022/12/28 11:28:00;;;;;;;2.97;0.95;;;;;;;9.54;100.00;98116.66;5046270;28;20502;-74
2022/12/28 11:30:27;;;;;;;0.47;0.47;;;;;;;9.56;100.00;98116.44;5022009;28;20478;-73
2022/12/28 11:32:59;;;;;;;0.43;0.43;;;;;;;9.51;100.00;98116.34;5054624;28;20067;-74
2022/12/28 11:35:31;;;;;;;1.27;0.60;;;;;;;9.50;100.00;98110.16;5022668;28;20041;-74
2022/12/28 11:37:59;;;;;;;7.03;1.15;;;;;;;9.61;100.00;98119.25;5038643;28;20098;-74
2022/12/28 11:40:43;;;;;;;0.40;0.40;;;;;;;9.76;100.00;98103.47;5038650;28;20020;-75
2022/12/28 11:43:27;;;;;;;3.28;0.90;;;;;;;10.34;100.00;98115.97;5054755;28;20458;-74
2022/12/28 11:46:04;;;;;;;2.40;0.90;;;;;;;11.14;100.00;98086.44;5056192;28;20090;-75
2022/12/28 11:48:41;;;;;;;0.50;0.50;;;;;;;11.26;100.00;98086.38;5038713;28;20051;-76
2022/12/28 11:51:25;;;;;;;0.60;0.60;;;;;;;11.09;100.00;98095.28;5059967;28;20028;-74
2022/12/28 11:54:48;;;;;;;0.90;0.90;;;;;;;10.91;100.00;98074.81;5055725;28;20037;-74
2022/12/28 11:57:32;;;;;;;0.50;0.50;;;;;;;10.71;100.00;98069.09;4994708;28;20038;-75
2022/12/28 12:00:18;;;;;;;1.35;1.25;;;;;;;10.82;100.00;98070.88;4996486;28;20129;-74
2022/12/28 12:02:48;;;;;;;1.48;0.77;;;;;;;10.99;100.00;98044.00;5038540;28;20048;-75
2022/12/28 12:05:35;;;;;;;2.25;0.60;;;;;;;11.16;100.00;98035.94;5065709;28;20029;-74
2022/12/28 12:08:31;;;;;;;1.35;1.25;;;;;;;11.26;100.00;98038.78;5075053;28;20082;-76
2022/12/28 12:11:20;;;;;;;2.40;0.88;;;;;;;11.55;100.00;98036.75;5053039;28;20135;-74
2022/12/28 12:13:47;;;;;;;3.85;1.55;;;;;;;11.47;100.00;98029.13;5036464;28;20430;-74